San Angelo Regional-Mathis, TX

9:41 AM CST on March 05, 2015 (GMT -0600)
Ozona Municipal | Change Station
CLOSE
Current Station
Airport
Location: Ozona,
Elevation: 2382 ft
Nearby Weather Stations
Active Advisory: Special Statement

Elev 2382 ft 30.74 °N, 101.20 °W | Updated 26 minutes ago

Clear
Clear
30 °F
Feels Like 18 °F
N
17
Wind Variable Wind from NNE
Gusts 25 mph

Today
High -- | Low -- °F
--% Chance of Precip.
Yesterday
High -- | Low -- °F
Precip. -- in
7:04 AM 6:42 PM
Full, 100% visible
Pressure 30.58 in
Visibility 10.0 miles
Clouds Scattered Clouds 5000 ft
Windchill 18 °F
Dew Point 18 °F
Humidity 60%
Rainfall 0.00 in
Snow Depth Not available.
UV 2 out of 12
Pollen 4.30 out of 12
Air Quality Not available.
Flu Activity Not available.
METAR KOZA 051515Z AUTO 02015G22KT 10SM SCT050 M01/M08 A3058 RMK AO2

More Conditions Fewer Conditions

Pressure 30.58 in
Visibility 10.0 miles
Clouds Scattered Clouds 5000 ft
Windchill 18 °F
Dew Point 18 °F
Humidity 60%
Rainfall 0.00 in
Snow Depth Not available.
UV 2 out of 12
Pollen 4.30 out of 12
Air Quality Not available.
Flu Activity Not available.
METAR KOZA 051515Z AUTO 02015G22KT 10SM SCT050 M01/M08 A3058 RMK AO2

More Conditions Fewer Conditions

10-Day Weather Forecast

Almanac

Astronomy

Mar. 05, 2015 Rise Set
Actual Time
Civil Twilight
Nautical Twilight
Astronomical Twilight
Moon
Length of Visible Light
Length of Day
Tomorrow will be .
, % of the Moon is Illuminated

Today's Extremes

State Highs State Lows

Community

WunderPhotos

Upload Photos

1,802,825 photos uploaded!

WunderBlogs® & News

Nearby

Air Quality

  Air Quality AQ Index Pollutant
Not available.

Snow Depth

Station Depth Elevation

Earthquake Activity

City Distance Mag. Time & Date
Minimum magnitude displayed is 2.5.

Coastal Water Temperatures

Place Temperature

Nearby Weather Stations

Special Statement
Statement as of 5:55 AM CST on March 05, 2015

... Hazardous travel conditions across west central Texas...

A mixture of freezing rain... sleet... and snow has resulted in
slick and hazardous conditions on area roads. Travel is
discouraged on most roads throughout the Big Country this
morning... including Interstate 20. Some slick spots have been
reported in the Concho Valley and Heartland counties... with icy
conditions on most bridges... overpasses... and less traveled
secondary roads. Farther south across the Interstate 10 corridor
and the Northwest Hill country... roads are generally in pretty
good shape. However... bridges and overpasses will still be slick
and hazardous.

If you have to get out this morning... be sure to give yourself
extra time to reach your destination. Reduce your speed and allow
plenty of room to stop. Temperatures are forecast to rise above
freezing between 10 am and noon... resulting in rapidly improving
Road conditions by midday.